Virgil, KS (66870)

7:09 PM CDT on July 24, 2014 (GMT -0500)
Toronto, KS (KKSTORON4) Elev 971 ft | 37.80 °N, 95.95 °W | Change Station
Active Advisory: Heat Advisory

Current weather conditions updated 4 minutes ago

Clear
Clear
84.3 °F
Feels Like 89 °F
N
0.0
Wind Variable Wind from SE
Gusts 3.0 mph

Tomorrow is forecast to be Much Warmer than today.

Today
High -- | Low -- °F
--% Chance of Precip.
Yesterday
High -- | Low -- °F
Precip. -- in
6:20 AM 8:40 PM
Waning Crescent, 3% visible
Pressure 29.95 in
Visibility 10.0 miles
Clouds Clear
Heat Index 89 °F
Dew Point 70 °F
Humidity 63%
Rainfall 0.00 in
Snow Depth Not available.
UV 1 out of 12
Pollen 5.70 out of 12
Air Quality Not available.
Flu Activity Not available.
METAR KEMP 242353Z AUTO 16011KT 10SM CLR 29/19 A2997 RMK AO2 SLP140 T02940189 10306 20278 56018

More Conditions Fewer Conditions

Pressure 29.95 in
Visibility 10.0 miles
Clouds Clear
Heat Index 89 °F
Dew Point 70 °F
Humidity 63%
Rainfall 0.00 in
Snow Depth Not available.
UV 1 out of 12
Pollen 5.70 out of 12
Air Quality Not available.
Flu Activity Not available.
METAR KEMP 242353Z AUTO 16011KT 10SM CLR 29/19 A2997 RMK AO2 SLP140 T02940189 10306 20278 56018

More Conditions Fewer Conditions

10-Day Weather Forecast

Almanac

Astronomy

Jul. 24, 2014 Rise Set
Actual Time 6:20 AM CDT 8:40 PM CDT
Civil Twilight 5:51 AM CDT 9:09 PM CDT
Nautical Twilight 5:14 AM CDT 9:46 PM CDT
Astronomical Twilight 4:34 AM CDT 10:26 PM CDT
Moon 4:29 AM CDT (7/24) 6:56 PM CDT (7/24)
Length of Visible Light 15h 18m
Length of Day
14h 19m
Tomorrow will be 1m 36s shorter.
Waning Crescent, 3% of the Moon is Illuminated
Today
Waning Crescent
Jul 26
New
Aug 3
First Quarter
Aug 10
Full
Aug 17
Last Quarter

Today's Extremes

State Highs State Lows

Community

WunderPhotos

Upload Photos

1,737,169 photos uploaded!

Nearby

Snow Depth

Station Depth Elevation
No new snow has been reported.

Earthquake Activity

City Distance Mag. Time & Date
Perry, Oklahoma 136 miles 2.9 7:28 AM CDT
2014-07-20
Harper, Kansas 113 miles 3.0 7:24 PM CDT
2014-07-19
Guthrie, Oklahoma 155 miles 2.9 8:59 PM CDT
2014-07-17
Perry, Oklahoma 139 miles 2.8 8:37 PM CDT
2014-07-17
Minimum magnitude displayed is 2.5.

Coastal Water Temperatures

Place Temperature
No Stations Reporting

Nearby Weather Stations

Station Location Temp. Heat Index Dew Point Humidity Wind Precip. Elev Updated Type
Toronto, KS, Toronto, KS 84.3 °F 89 °F 70 °F 63% SE  at  0.0 mph 0.00 in / hr 971 ft 7:05 PM CDT Normal
HADS VERDIGRIS RIVER AT TORONTO KS, Toronto, KS 86 °F 88 °F 66 °F 52% South  at  6 mph 0.00 in / hr 960 ft 6:30 PM CDT MADIS
HADS FALL RIVER LAKE NEAR FALL RIVER KS, Fall River, KS 88 °F 96 °F 73 °F 61% SSE  at  7 mph 0.00 in / hr 1020 ft 6:00 PM CDT MADIS
Gridley Fire Station, Gridley, KS 87.4 °F 91 °F 68 °F 53% SSE  at  11.0 mph 0.00 in / hr 1161 ft 7:06 PM CDT Normal
Buffalo, Yates Center, KS 86.5 °F 91 °F 70 °F 58% SSW  at  7.3 mph - / hr 935 ft 6:55 PM CDT Normal

Show More Stations Show Fewer Stations